sensor_id;sensor_type;location;lat;lon;timestamp;P1;durP1;ratioP1;P2;durP2;ratioP2
46222;SDS011;31943;51.410;7.564;2023-04-23T00:00:16;18.45;;;16.65;;
46222;SDS011;31943;51.410;7.564;2023-04-23T00:02:44;18.15;;;16.33;;
46222;SDS011;31943;51.410;7.564;2023-04-23T00:05:12;18.05;;;16.27;;
46222;SDS011;31943;51.410;7.564;2023-04-23T00:07:38;18.30;;;16.40;;
46222;SDS011;31943;51.410;7.564;2023-04-23T00:10:06;16.75;;;15.05;;
46222;SDS011;31943;51.410;7.564;2023-04-23T00:12:34;19.15;;;17.25;;
46222;SDS011;31943;51.410;7.564;2023-04-23T00:15:01;19.10;;;17.20;;
46222;SDS011;31943;51.410;7.564;2023-04-23T00:17:28;16.45;;;14.88;;
46222;SDS011;31943;51.410;7.564;2023-04-23T00:19:55;18.30;;;16.40;;
46222;SDS011;31943;51.410;7.564;2023-04-23T00:22:20;16.48;;;14.38;;
46222;SDS011;31943;51.410;7.564;2023-04-23T00:24:46;18.77;;;16.98;;
46222;SDS011;31943;51.410;7.564;2023-04-23T00:27:12;18.40;;;16.50;;
46222;SDS011;31943;51.410;7.564;2023-04-23T00:29:37;19.48;;;17.65;;
46222;SDS011;31943;51.410;7.564;2023-04-23T00:32:03;18.83;;;16.88;;
46222;SDS011;31943;51.410;7.564;2023-04-23T00:34:29;19.80;;;17.70;;
46222;SDS011;31943;51.410;7.564;2023-04-23T00:36:56;19.90;;;17.92;;
46222;SDS011;31943;51.410;7.564;2023-04-23T00:39:22;19.45;;;17.58;;
46222;SDS011;31943;51.410;7.564;2023-04-23T00:41:49;20.38;;;18.27;;
46222;SDS011;31943;51.410;7.564;2023-04-23T00:44:14;17.58;;;15.95;;
46222;SDS011;31943;51.410;7.564;2023-04-23T00:46:41;19.92;;;17.92;;
46222;SDS011;31943;51.410;7.564;2023-04-23T00:49:07;21.90;;;19.10;;
46222;SDS011;31943;51.410;7.564;2023-04-23T00:51:33;18.35;;;16.48;;
46222;SDS011;31943;51.410;7.564;2023-04-23T00:54:00;21.27;;;18.98;;
46222;SDS011;31943;51.410;7.564;2023-04-23T00:56:26;23.02;;;20.50;;
46222;SDS011;31943;51.410;7.564;2023-04-23T00:58:52;21.27;;;19.17;;
46222;SDS011;31943;51.410;7.564;2023-04-23T01:01:24;19.55;;;17.45;;
46222;SDS011;31943;51.410;7.564;2023-04-23T01:03:50;21.02;;;18.90;;
46222;SDS011;31943;51.410;7.564;2023-04-23T01:06:17;21.45;;;19.23;;
46222;SDS011;31943;51.410;7.564;2023-04-23T01:08:43;19.90;;;17.80;;
46222;SDS011;31943;51.410;7.564;2023-04-23T01:11:12;20.40;;;18.10;;
46222;SDS011;31943;51.410;7.564;2023-04-23T01:13:40;20.40;;;18.27;;
46222;SDS011;31943;51.410;7.564;2023-04-23T01:16:06;19.88;;;17.65;;
46222;SDS011;31943;51.410;7.564;2023-04-23T01:18:32;19.58;;;17.58;;
46222;SDS011;31943;51.410;7.564;2023-04-23T01:20:58;21.33;;;19.15;;
46222;SDS011;31943;51.410;7.564;2023-04-23T01:23:25;20.63;;;18.48;;
46222;SDS011;31943;51.410;7.564;2023-04-23T01:25:51;18.90;;;16.95;;
46222;SDS011;31943;51.410;7.564;2023-04-23T01:28:17;19.58;;;17.60;;
46222;SDS011;31943;51.410;7.564;2023-04-23T01:30:43;21.20;;;19.02;;
46222;SDS011;31943;51.410;7.564;2023-04-23T01:33:09;21.80;;;19.60;;
46222;SDS011;31943;51.410;7.564;2023-04-23T01:35:35;21.13;;;18.98;;
46222;SDS011;31943;51.410;7.564;2023-04-23T01:38:01;22.48;;;19.42;;
46222;SDS011;31943;51.410;7.564;2023-04-23T01:40:32;19.95;;;17.85;;
46222;SDS011;31943;51.410;7.564;2023-04-23T01:42:57;21.15;;;19.02;;
46222;SDS011;31943;51.410;7.564;2023-04-23T01:45:24;21.65;;;19.38;;
46222;SDS011;31943;51.410;7.564;2023-04-23T01:47:50;21.15;;;19.05;;
46222;SDS011;31943;51.410;7.564;2023-04-23T01:50:16;20.58;;;18.30;;
46222;SDS011;31943;51.410;7.564;2023-04-23T01:52:41;21.13;;;18.95;;
46222;SDS011;31943;51.410;7.564;2023-04-23T01:55:07;20.13;;;17.52;;
46222;SDS011;31943;51.410;7.564;2023-04-23T01:57:34;19.35;;;17.45;;
46222;SDS011;31943;51.410;7.564;2023-04-23T02:00:03;18.55;;;16.58;;
46222;SDS011;31943;51.410;7.564;2023-04-23T02:04:57;19.42;;;17.15;;
46222;SDS011;31943;51.410;7.564;2023-04-23T02:07:25;22.05;;;18.30;;
46222;SDS011;31943;51.410;7.564;2023-04-23T02:09:50;18.73;;;16.83;;
46222;SDS011;31943;51.410;7.564;2023-04-23T02:12:16;18.33;;;16.38;;
46222;SDS011;31943;51.410;7.564;2023-04-23T02:14:43;18.45;;;16.65;;
46222;SDS011;31943;51.410;7.564;2023-04-23T02:17:09;19.70;;;17.48;;
46222;SDS011;31943;51.410;7.564;2023-04-23T02:19:35;16.88;;;15.18;;
46222;SDS011;31943;51.410;7.564;2023-04-23T02:22:00;15.55;;;13.95;;
46222;SDS011;31943;51.410;7.564;2023-04-23T02:24:26;17.65;;;15.75;;
46222;SDS011;31943;51.410;7.564;2023-04-23T02:26:51;15.95;;;14.45;;
46222;SDS011;31943;51.410;7.564;2023-04-23T02:29:18;17.55;;;15.75;;
46222;SDS011;31943;51.410;7.564;2023-04-23T02:31:46;18.95;;;16.25;;
46222;SDS011;31943;51.410;7.564;2023-04-23T02:34:12;17.70;;;16.00;;
46222;SDS011;31943;51.410;7.564;2023-04-23T02:36:37;19.23;;;16.48;;
46222;SDS011;31943;51.410;7.564;2023-04-23T02:39:03;17.40;;;15.50;;
46222;SDS011;31943;51.410;7.564;2023-04-23T02:41:28;18.23;;;16.30;;
46222;SDS011;31943;51.410;7.564;2023-04-23T02:43:54;19.13;;;17.23;;
46222;SDS011;31943;51.410;7.564;2023-04-23T02:46:19;18.27;;;16.40;;
46222;SDS011;31943;51.410;7.564;2023-04-23T02:48:47;16.30;;;14.65;;
46222;SDS011;31943;51.410;7.564;2023-04-23T02:51:13;16.13;;;14.52;;
46222;SDS011;31943;51.410;7.564;2023-04-23T02:53:39;16.40;;;14.70;;
46222;SDS011;31943;51.410;7.564;2023-04-23T02:56:05;15.02;;;13.52;;
46222;SDS011;31943;51.410;7.564;2023-04-23T02:58:31;15.43;;;13.82;;
46222;SDS011;31943;51.410;7.564;2023-04-23T03:00:56;16.38;;;14.50;;
46222;SDS011;31943;51.410;7.564;2023-04-23T03:03:22;13.27;;;11.88;;
46222;SDS011;31943;51.410;7.564;2023-04-23T03:05:50;15.18;;;13.63;;
46222;SDS011;31943;51.410;7.564;2023-04-23T03:08:16;13.32;;;11.88;;
46222;SDS011;31943;51.410;7.564;2023-04-23T03:10:41;13.02;;;11.82;;
46222;SDS011;31943;51.410;7.564;2023-04-23T03:13:07;13.15;;;11.82;;
46222;SDS011;31943;51.410;7.564;2023-04-23T03:15:33;18.63;;;13.13;;
46222;SDS011;31943;51.410;7.564;2023-04-23T03:17:59;15.50;;;13.95;;
46222;SDS011;31943;51.410;7.564;2023-04-23T03:20:25;14.25;;;12.77;;
46222;SDS011;31943;51.410;7.564;2023-04-23T03:22:53;16.30;;;13.45;;
46222;SDS011;31943;51.410;7.564;2023-04-23T03:25:18;14.48;;;12.60;;
46222;SDS011;31943;51.410;7.564;2023-04-23T03:27:44;17.45;;;13.05;;
46222;SDS011;31943;51.410;7.564;2023-04-23T03:30:13;12.85;;;11.45;;
46222;SDS011;31943;51.410;7.564;2023-04-23T03:32:38;13.50;;;12.15;;
46222;SDS011;31943;51.410;7.564;2023-04-23T03:35:04;11.95;;;10.27;;
46222;SDS011;31943;51.410;7.564;2023-04-23T03:37:30;13.90;;;11.48;;
46222;SDS011;31943;51.410;7.564;2023-04-23T03:39:57;13.10;;;11.73;;
46222;SDS011;31943;51.410;7.564;2023-04-23T03:42:22;13.05;;;11.75;;
46222;SDS011;31943;51.410;7.564;2023-04-23T03:44:48;12.50;;;11.20;;
46222;SDS011;31943;51.410;7.564;2023-04-23T03:47:14;12.10;;;10.90;;
46222;SDS011;31943;51.410;7.564;2023-04-23T03:49:39;12.75;;;11.02;;
46222;SDS011;31943;51.410;7.564;2023-04-23T03:52:05;11.98;;;10.73;;
46222;SDS011;31943;51.410;7.564;2023-04-23T03:54:30;12.15;;;10.93;;
46222;SDS011;31943;51.410;7.564;2023-04-23T03:56:58;11.30;;;10.20;;
46222;SDS011;31943;51.410;7.564;2023-04-23T03:59:24;11.02;;;9.93;;
46222;SDS011;31943;51.410;7.564;2023-04-23T04:01:49;12.63;;;11.13;;
46222;SDS011;31943;51.410;7.564;2023-04-23T04:04:15;11.90;;;10.57;;
46222;SDS011;31943;51.410;7.564;2023-04-23T04:06:40;14.75;;;9.90;;
46222;SDS011;31943;51.410;7.564;2023-04-23T04:09:06;16.80;;;13.98;;
46222;SDS011;31943;51.410;7.564;2023-04-23T04:11:32;12.82;;;11.52;;
46222;SDS011;31943;51.410;7.564;2023-04-23T04:13:59;15.80;;;11.90;;
46222;SDS011;31943;51.410;7.564;2023-04-23T04:16:25;13.68;;;11.68;;
46222;SDS011;31943;51.410;7.564;2023-04-23T04:18:51;12.80;;;11.38;;
46222;SDS011;31943;51.410;7.564;2023-04-23T04:21:17;13.55;;;12.15;;
46222;SDS011;31943;51.410;7.564;2023-04-23T04:23:43;15.90;;;14.18;;
46222;SDS011;31943;51.410;7.564;2023-04-23T04:26:09;15.32;;;13.15;;
46222;SDS011;31943;51.410;7.564;2023-04-23T04:28:35;15.43;;;13.88;;
46222;SDS011;31943;51.410;7.564;2023-04-23T04:31:03;16.48;;;14.27;;
46222;SDS011;31943;51.410;7.564;2023-04-23T04:33:29;17.15;;;15.43;;
46222;SDS011;31943;51.410;7.564;2023-04-23T04:35:55;13.93;;;12.32;;
46222;SDS011;31943;51.410;7.564;2023-04-23T04:38:21;16.77;;;14.93;;
46222;SDS011;31943;51.410;7.564;2023-04-23T04:40:47;19.30;;;16.02;;
46222;SDS011;31943;51.410;7.564;2023-04-23T04:43:13;20.10;;;16.42;;
46222;SDS011;31943;51.410;7.564;2023-04-23T04:45:39;18.67;;;16.73;;
46222;SDS011;31943;51.410;7.564;2023-04-23T04:48:06;19.98;;;17.88;;
46222;SDS011;31943;51.410;7.564;2023-04-23T04:50:32;19.17;;;17.13;;
46222;SDS011;31943;51.410;7.564;2023-04-23T04:52:59;19.35;;;17.33;;
46222;SDS011;31943;51.410;7.564;2023-04-23T04:55:24;18.63;;;16.73;;
46222;SDS011;31943;51.410;7.564;2023-04-23T04:57:50;19.27;;;17.38;;
46222;SDS011;31943;51.410;7.564;2023-04-23T05:00:22;20.50;;;18.42;;
46222;SDS011;31943;51.410;7.564;2023-04-23T05:02:49;18.77;;;16.73;;
46222;SDS011;31943;51.410;7.564;2023-04-23T05:05:17;19.40;;;17.08;;
46222;SDS011;31943;51.410;7.564;2023-04-23T05:07:43;20.48;;;17.65;;
46222;SDS011;31943;51.410;7.564;2023-04-23T05:10:09;19.80;;;17.70;;
46222;SDS011;31943;51.410;7.564;2023-04-23T05:12:35;19.45;;;17.45;;
46222;SDS011;31943;51.410;7.564;2023-04-23T05:15:00;20.10;;;17.98;;
46222;SDS011;31943;51.410;7.564;2023-04-23T05:17:26;22.02;;;18.20;;
46222;SDS011;31943;51.410;7.564;2023-04-23T05:19:51;19.75;;;17.73;;
46222;SDS011;31943;51.410;7.564;2023-04-23T05:22:19;21.27;;;18.50;;
46222;SDS011;31943;51.410;7.564;2023-04-23T05:24:45;19.67;;;17.60;;
46222;SDS011;31943;51.410;7.564;2023-04-23T05:27:11;17.60;;;15.70;;
46222;SDS011;31943;51.410;7.564;2023-04-23T05:29:36;17.83;;;15.93;;
46222;SDS011;31943;51.410;7.564;2023-04-23T05:32:02;20.33;;;18.23;;
46222;SDS011;31943;51.410;7.564;2023-04-23T05:34:28;20.33;;;18.13;;
46222;SDS011;31943;51.410;7.564;2023-04-23T05:36:55;18.35;;;16.33;;
46222;SDS011;31943;51.410;7.564;2023-04-23T05:39:22;20.95;;;18.67;;
46222;SDS011;31943;51.410;7.564;2023-04-23T05:41:48;16.08;;;14.38;;
46222;SDS011;31943;51.410;7.564;2023-04-23T05:44:14;16.60;;;14.82;;
46222;SDS011;31943;51.410;7.564;2023-04-23T05:46:40;19.65;;;14.02;;
46222;SDS011;31943;51.410;7.564;2023-04-23T05:49:05;14.65;;;13.23;;
46222;SDS011;31943;51.410;7.564;2023-04-23T05:51:31;15.18;;;13.68;;
46222;SDS011;31943;51.410;7.564;2023-04-23T05:53:57;15.20;;;13.38;;
46222;SDS011;31943;51.410;7.564;2023-04-23T05:56:24;16.48;;;14.77;;
46222;SDS011;31943;51.410;7.564;2023-04-23T05:58:50;14.95;;;13.35;;
46222;SDS011;31943;51.410;7.564;2023-04-23T06:01:18;15.52;;;13.85;;
46222;SDS011;31943;51.410;7.564;2023-04-23T06:03:44;17.98;;;13.55;;
46222;SDS011;31943;51.410;7.564;2023-04-23T06:06:10;15.18;;;13.57;;
46222;SDS011;31943;51.410;7.564;2023-04-23T06:08:35;16.13;;;13.55;;
46222;SDS011;31943;51.410;7.564;2023-04-23T06:11:01;16.02;;;12.82;;
46222;SDS011;31943;51.410;7.564;2023-04-23T06:13:28;14.90;;;13.18;;
46222;SDS011;31943;51.410;7.564;2023-04-23T06:15:53;15.52;;;13.35;;
46222;SDS011;31943;51.410;7.564;2023-04-23T06:18:19;13.57;;;12.27;;
46222;SDS011;31943;51.410;7.564;2023-04-23T06:20:45;15.13;;;13.05;;
46222;SDS011;31943;51.410;7.564;2023-04-23T06:23:11;13.75;;;12.38;;
46222;SDS011;31943;51.410;7.564;2023-04-23T06:25:37;14.27;;;12.77;;
46222;SDS011;31943;51.410;7.564;2023-04-23T06:28:03;14.07;;;12.68;;
46222;SDS011;31943;51.410;7.564;2023-04-23T06:30:30;13.20;;;11.90;;
46222;SDS011;31943;51.410;7.564;2023-04-23T06:32:56;13.82;;;12.35;;
46222;SDS011;31943;51.410;7.564;2023-04-23T06:35:23;14.02;;;12.55;;
46222;SDS011;31943;51.410;7.564;2023-04-23T06:37:50;12.88;;;11.57;;
46222;SDS011;31943;51.410;7.564;2023-04-23T06:40:16;12.73;;;11.48;;
46222;SDS011;31943;51.410;7.564;2023-04-23T06:42:46;12.27;;;10.98;;
46222;SDS011;31943;51.410;7.564;2023-04-23T06:45:13;12.20;;;11.10;;
46222;SDS011;31943;51.410;7.564;2023-04-23T06:47:42;12.50;;;9.98;;
46222;SDS011;31943;51.410;7.564;2023-04-23T06:50:08;13.90;;;9.68;;
46222;SDS011;31943;51.410;7.564;2023-04-23T06:52:34;12.10;;;10.55;;
46222;SDS011;31943;51.410;7.564;2023-04-23T06:55:00;10.63;;;9.52;;
46222;SDS011;31943;51.410;7.564;2023-04-23T06:57:27;10.52;;;9.52;;
46222;SDS011;31943;51.410;7.564;2023-04-23T06:59:52;11.88;;;9.32;;
46222;SDS011;31943;51.410;7.564;2023-04-23T07:02:18;10.57;;;8.23;;
46222;SDS011;31943;51.410;7.564;2023-04-23T07:04:45;9.63;;;7.95;;
46222;SDS011;31943;51.410;7.564;2023-04-23T07:07:11;8.73;;;7.90;;
46222;SDS011;31943;51.410;7.564;2023-04-23T07:09:37;10.27;;;8.70;;
46222;SDS011;31943;51.410;7.564;2023-04-23T07:12:02;9.05;;;7.75;;
46222;SDS011;31943;51.410;7.564;2023-04-23T07:14:28;7.95;;;7.20;;
46222;SDS011;31943;51.410;7.564;2023-04-23T07:16:54;8.23;;;7.43;;
46222;SDS011;31943;51.410;7.564;2023-04-23T07:19:19;8.35;;;7.38;;
46222;SDS011;31943;51.410;7.564;2023-04-23T07:21:46;8.10;;;7.10;;
46222;SDS011;31943;51.410;7.564;2023-04-23T07:24:12;8.35;;;7.25;;
46222;SDS011;31943;51.410;7.564;2023-04-23T07:26:37;7.85;;;7.10;;
46222;SDS011;31943;51.410;7.564;2023-04-23T07:29:03;7.03;;;6.43;;
46222;SDS011;31943;51.410;7.564;2023-04-23T07:31:29;8.65;;;6.55;;
46222;SDS011;31943;51.410;7.564;2023-04-23T07:33:55;7.22;;;6.43;;
46222;SDS011;31943;51.410;7.564;2023-04-23T07:36:21;6.57;;;5.97;;
46222;SDS011;31943;51.410;7.564;2023-04-23T07:38:48;6.72;;;5.50;;
46222;SDS011;31943;51.410;7.564;2023-04-23T07:41:15;6.30;;;5.70;;
46222;SDS011;31943;51.410;7.564;2023-04-23T07:43:41;8.85;;;6.13;;
46222;SDS011;31943;51.410;7.564;2023-04-23T07:46:07;7.95;;;5.75;;
46222;SDS011;31943;51.410;7.564;2023-04-23T07:48:35;7.63;;;5.50;;
46222;SDS011;31943;51.410;7.564;2023-04-23T07:51:01;8.15;;;5.15;;
46222;SDS011;31943;51.410;7.564;2023-04-23T07:53:28;5.72;;;4.90;;
46222;SDS011;31943;51.410;7.564;2023-04-23T07:55:55;6.10;;;5.50;;
46222;SDS011;31943;51.410;7.564;2023-04-23T07:58:22;6.75;;;5.07;;
46222;SDS011;31943;51.410;7.564;2023-04-23T08:00:48;5.53;;;5.03;;
46222;SDS011;31943;51.410;7.564;2023-04-23T08:03:14;5.45;;;4.95;;
46222;SDS011;31943;51.410;7.564;2023-04-23T08:05:40;6.20;;;4.40;;
46222;SDS011;31943;51.410;7.564;2023-04-23T08:08:05;6.05;;;4.55;;
46222;SDS011;31943;51.410;7.564;2023-04-23T08:10:31;6.35;;;4.82;;
46222;SDS011;31943;51.410;7.564;2023-04-23T08:12:59;4.68;;;4.28;;
46222;SDS011;31943;51.410;7.564;2023-04-23T08:15:25;6.88;;;4.32;;
46222;SDS011;31943;51.410;7.564;2023-04-23T08:17:51;5.13;;;4.60;;
46222;SDS011;31943;51.410;7.564;2023-04-23T08:20:17;7.40;;;4.15;;
46222;SDS011;31943;51.410;7.564;2023-04-23T08:22:43;7.40;;;4.68;;
46222;SDS011;31943;51.410;7.564;2023-04-23T08:25:09;5.18;;;4.38;;
46222;SDS011;31943;51.410;7.564;2023-04-23T08:27:34;6.53;;;4.32;;
46222;SDS011;31943;51.410;7.564;2023-04-23T08:30:02;5.90;;;4.07;;
46222;SDS011;31943;51.410;7.564;2023-04-23T08:32:29;8.48;;;4.28;;
46222;SDS011;31943;51.410;7.564;2023-04-23T08:34:56;5.55;;;3.92;;
46222;SDS011;31943;51.410;7.564;2023-04-23T08:37:23;4.72;;;4.22;;
46222;SDS011;31943;51.410;7.564;2023-04-23T08:39:49;6.82;;;3.90;;
46222;SDS011;31943;51.410;7.564;2023-04-23T08:42:16;8.30;;;3.50;;
46222;SDS011;31943;51.410;7.564;2023-04-23T08:44:47;3.72;;;3.38;;
46222;SDS011;31943;51.410;7.564;2023-04-23T08:47:17;4.35;;;3.85;;
46222;SDS011;31943;51.410;7.564;2023-04-23T08:49:45;6.28;;;4.22;;
46222;SDS011;31943;51.410;7.564;2023-04-23T08:52:15;6.20;;;3.72;;
46222;SDS011;31943;51.410;7.564;2023-04-23T08:54:45;7.60;;;3.92;;
46222;SDS011;31943;51.410;7.564;2023-04-23T08:57:13;5.78;;;3.20;;
46222;SDS011;31943;51.410;7.564;2023-04-23T08:59:41;3.97;;;3.13;;
46222;SDS011;31943;51.410;7.564;2023-04-23T09:02:08;5.00;;;2.95;;
46222;SDS011;31943;51.410;7.564;2023-04-23T09:04:36;4.13;;;2.72;;
46222;SDS011;31943;51.410;7.564;2023-04-23T09:07:02;5.03;;;2.83;;
46222;SDS011;31943;51.410;7.564;2023-04-23T09:09:28;4.50;;;2.42;;
46222;SDS011;31943;51.410;7.564;2023-04-23T09:11:54;5.03;;;3.00;;
46222;SDS011;31943;51.410;7.564;2023-04-23T09:14:22;3.88;;;2.63;;
46222;SDS011;31943;51.410;7.564;2023-04-23T09:16:48;3.53;;;2.20;;
46222;SDS011;31943;51.410;7.564;2023-04-23T09:19:14;4.10;;;2.25;;
46222;SDS011;31943;51.410;7.564;2023-04-23T09:21:44;4.13;;;2.08;;
46222;SDS011;31943;51.410;7.564;2023-04-23T09:24:10;6.10;;;2.60;;
46222;SDS011;31943;51.410;7.564;2023-04-23T09:26:42;3.90;;;1.85;;
46222;SDS011;31943;51.410;7.564;2023-04-23T09:29:11;4.78;;;2.20;;
46222;SDS011;31943;51.410;7.564;2023-04-23T09:31:37;4.38;;;2.13;;
46222;SDS011;31943;51.410;7.564;2023-04-23T09:34:03;6.00;;;1.88;;
46222;SDS011;31943;51.410;7.564;2023-04-23T09:36:31;5.18;;;2.05;;
46222;SDS011;31943;51.410;7.564;2023-04-23T09:39:00;4.70;;;1.80;;
46222;SDS011;31943;51.410;7.564;2023-04-23T09:41:36;4.18;;;1.90;;
46222;SDS011;31943;51.410;7.564;2023-04-23T09:44:02;3.85;;;1.70;;
46222;SDS011;31943;51.410;7.564;2023-04-23T09:46:34;4.50;;;1.80;;
46222;SDS011;31943;51.410;7.564;2023-04-23T09:49:01;6.95;;;1.88;;
46222;SDS011;31943;51.410;7.564;2023-04-23T09:51:28;4.45;;;1.70;;
46222;SDS011;31943;51.410;7.564;2023-04-23T09:53:54;7.25;;;2.10;;
46222;SDS011;31943;51.410;7.564;2023-04-23T09:56:22;5.25;;;1.70;;
46222;SDS011;31943;51.410;7.564;2023-04-23T09:58:48;2.38;;;1.30;;
46222;SDS011;31943;51.410;7.564;2023-04-23T10:01:14;4.10;;;1.67;;
46222;SDS011;31943;51.410;7.564;2023-04-23T10:03:41;4.00;;;1.65;;
46222;SDS011;31943;51.410;7.564;2023-04-23T10:06:09;4.78;;;1.90;;
46222;SDS011;31943;51.410;7.564;2023-04-23T10:09:04;5.90;;;2.10;;
46222;SDS011;31943;51.410;7.564;2023-04-23T10:11:32;3.47;;;1.55;;
46222;SDS011;31943;51.410;7.564;2023-04-23T10:13:58;2.47;;;1.38;;
46222;SDS011;31943;51.410;7.564;2023-04-23T10:16:26;4.65;;;1.42;;
46222;SDS011;31943;51.410;7.564;2023-04-23T10:18:52;3.40;;;1.58;;
46222;SDS011;31943;51.410;7.564;2023-04-23T10:21:18;3.38;;;1.15;;
46222;SDS011;31943;51.410;7.564;2023-04-23T10:23:46;4.57;;;1.38;;
46222;SDS011;31943;51.410;7.564;2023-04-23T10:26:14;3.17;;;1.50;;
46222;SDS011;31943;51.410;7.564;2023-04-23T10:28:46;3.40;;;1.48;;
46222;SDS011;31943;51.410;7.564;2023-04-23T10:31:14;5.35;;;1.73;;
46222;SDS011;31943;51.410;7.564;2023-04-23T10:33:44;4.65;;;1.30;;
46222;SDS011;31943;51.410;7.564;2023-04-23T10:36:11;2.75;;;1.38;;
46222;SDS011;31943;51.410;7.564;2023-04-23T10:38:38;2.50;;;1.30;;
46222;SDS011;31943;51.410;7.564;2023-04-23T10:41:04;1.73;;;1.20;;
46222;SDS011;31943;51.410;7.564;2023-04-23T10:43:32;2.97;;;1.40;;
46222;SDS011;31943;51.410;7.564;2023-04-23T10:46:01;2.88;;;1.20;;
46222;SDS011;31943;51.410;7.564;2023-04-23T10:48:27;2.25;;;1.60;;
46222;SDS011;31943;51.410;7.564;2023-04-23T10:50:56;2.22;;;1.20;;
46222;SDS011;31943;51.410;7.564;2023-04-23T10:53:22;4.38;;;1.23;;
46222;SDS011;31943;51.410;7.564;2023-04-23T10:55:48;2.85;;;1.30;;
46222;SDS011;31943;51.410;7.564;2023-04-23T10:58:13;2.33;;;1.25;;
46222;SDS011;31943;51.410;7.564;2023-04-23T11:00:43;3.60;;;1.42;;
46222;SDS011;31943;51.410;7.564;2023-04-23T11:03:30;2.03;;;1.30;;
46222;SDS011;31943;51.410;7.564;2023-04-23T11:06:01;2.08;;;1.10;;
46222;SDS011;31943;51.410;7.564;2023-04-23T11:08:28;3.80;;;1.20;;
46222;SDS011;31943;51.410;7.564;2023-04-23T11:10:55;2.05;;;1.13;;
46222;SDS011;31943;51.410;7.564;2023-04-23T11:13:23;4.10;;;1.38;;
46222;SDS011;31943;51.410;7.564;2023-04-23T11:19:02;2.93;;;1.30;;
46222;SDS011;31943;51.410;7.564;2023-04-23T11:24:24;2.25;;;1.05;;
46222;SDS011;31943;51.410;7.564;2023-04-23T11:26:51;1.58;;;1.02;;
46222;SDS011;31943;51.410;7.564;2023-04-23T11:29:18;1.50;;;1.00;;
46222;SDS011;31943;51.410;7.564;2023-04-23T11:31:46;3.40;;;1.42;;
46222;SDS011;31943;51.410;7.564;2023-04-23T11:34:14;2.97;;;1.08;;
46222;SDS011;31943;51.410;7.564;2023-04-23T11:36:40;3.90;;;1.38;;
46222;SDS011;31943;51.410;7.564;2023-04-23T11:39:07;2.80;;;1.30;;
46222;SDS011;31943;51.410;7.564;2023-04-23T11:41:32;2.65;;;1.15;;
46222;SDS011;31943;51.410;7.564;2023-04-23T11:43:58;3.10;;;0.98;;
46222;SDS011;31943;51.410;7.564;2023-04-23T11:46:24;1.75;;;1.10;;
46222;SDS011;31943;51.410;7.564;2023-04-23T11:48:49;2.42;;;1.02;;
46222;SDS011;31943;51.410;7.564;2023-04-23T11:51:16;3.15;;;1.02;;
46222;SDS011;31943;51.410;7.564;2023-04-23T11:53:43;3.88;;;1.23;;
46222;SDS011;31943;51.410;7.564;2023-04-23T11:56:10;2.97;;;1.13;;
46222;SDS011;31943;51.410;7.564;2023-04-23T11:58:35;3.13;;;1.10;;
46222;SDS011;31943;51.410;7.564;2023-04-23T12:01:01;1.48;;;1.10;;
46222;SDS011;31943;51.410;7.564;2023-04-23T12:03:27;2.70;;;1.00;;
46222;SDS011;31943;51.410;7.564;2023-04-23T12:05:52;3.53;;;0.98;;
46222;SDS011;31943;51.410;7.564;2023-04-23T12:08:20;2.40;;;1.00;;
46222;SDS011;31943;51.410;7.564;2023-04-23T12:10:46;2.38;;;0.80;;
46222;SDS011;31943;51.410;7.564;2023-04-23T12:13:14;4.43;;;1.10;;
46222;SDS011;31943;51.410;7.564;2023-04-23T12:15:44;2.33;;;0.85;;
46222;SDS011;31943;51.410;7.564;2023-04-23T12:18:10;1.60;;;0.90;;
46222;SDS011;31943;51.410;7.564;2023-04-23T12:20:36;1.63;;;0.68;;
46222;SDS011;31943;51.410;7.564;2023-04-23T12:23:02;1.35;;;0.60;;
46222;SDS011;31943;51.410;7.564;2023-04-23T12:25:30;3.03;;;0.95;;
46222;SDS011;31943;51.410;7.564;2023-04-23T12:27:57;1.27;;;0.60;;
46222;SDS011;31943;51.410;7.564;2023-04-23T12:30:25;1.30;;;0.70;;
46222;SDS011;31943;51.410;7.564;2023-04-23T12:32:57;2.58;;;0.90;;
46222;SDS011;31943;51.410;7.564;2023-04-23T12:35:35;3.72;;;1.08;;
46222;SDS011;31943;51.410;7.564;2023-04-23T12:38:03;2.15;;;0.80;;
46222;SDS011;31943;51.410;7.564;2023-04-23T12:40:31;1.65;;;0.70;;
46222;SDS011;31943;51.410;7.564;2023-04-23T12:42:56;4.20;;;0.80;;
46222;SDS011;31943;51.410;7.564;2023-04-23T12:45:22;1.90;;;0.70;;
46222;SDS011;31943;51.410;7.564;2023-04-23T12:47:48;0.70;;;0.40;;
46222;SDS011;31943;51.410;7.564;2023-04-23T12:50:13;1.05;;;0.60;;
46222;SDS011;31943;51.410;7.564;2023-04-23T12:52:40;1.65;;;0.60;;
46222;SDS011;31943;51.410;7.564;2023-04-23T12:55:06;1.75;;;0.70;;
46222;SDS011;31943;51.410;7.564;2023-04-23T12:57:34;2.58;;;0.68;;
46222;SDS011;31943;51.410;7.564;2023-04-23T12:59:59;0.88;;;0.50;;
46222;SDS011;31943;51.410;7.564;2023-04-23T13:02:25;1.48;;;0.70;;
46222;SDS011;31943;51.410;7.564;2023-04-23T13:04:51;1.40;;;0.70;;
46222;SDS011;31943;51.410;7.564;2023-04-23T13:07:16;2.25;;;0.80;;
46222;SDS011;31943;51.410;7.564;2023-04-23T13:09:42;2.80;;;0.80;;
46222;SDS011;31943;51.410;7.564;2023-04-23T13:12:07;1.77;;;0.80;;
46222;SDS011;31943;51.410;7.564;2023-04-23T13:14:35;1.38;;;0.65;;
46222;SDS011;31943;51.410;7.564;2023-04-23T13:17:00;2.22;;;0.82;;
46222;SDS011;31943;51.410;7.564;2023-04-23T13:19:27;3.35;;;1.00;;
46222;SDS011;31943;51.410;7.564;2023-04-23T13:21:52;1.38;;;0.70;;
46222;SDS011;31943;51.410;7.564;2023-04-23T13:24:18;1.65;;;0.70;;
46222;SDS011;31943;51.410;7.564;2023-04-23T13:26:43;2.67;;;0.80;;
46222;SDS011;31943;51.410;7.564;2023-04-23T13:29:10;1.38;;;0.80;;
46222;SDS011;31943;51.410;7.564;2023-04-23T13:31:37;2.15;;;0.80;;
46222;SDS011;31943;51.410;7.564;2023-04-23T13:34:03;1.63;;;0.80;;
46222;SDS011;31943;51.410;7.564;2023-04-23T13:36:29;3.65;;;0.82;;
46222;SDS011;31943;51.410;7.564;2023-04-23T13:38:54;4.78;;;0.90;;
46222;SDS011;31943;51.410;7.564;2023-04-23T13:41:20;1.63;;;0.65;;
46222;SDS011;31943;51.410;7.564;2023-04-23T13:43:46;1.88;;;0.80;;
46222;SDS011;31943;51.410;7.564;2023-04-23T13:46:11;3.03;;;0.75;;
46222;SDS011;31943;51.410;7.564;2023-04-23T13:48:39;1.70;;;0.70;;
46222;SDS011;31943;51.410;7.564;2023-04-23T13:51:05;1.95;;;0.50;;
46222;SDS011;31943;51.410;7.564;2023-04-23T13:53:31;2.78;;;0.60;;
46222;SDS011;31943;51.410;7.564;2023-04-23T13:55:58;1.70;;;0.60;;
46222;SDS011;31943;51.410;7.564;2023-04-23T13:58:23;2.85;;;0.60;;
46222;SDS011;31943;51.410;7.564;2023-04-23T14:00:51;2.17;;;0.60;;
46222;SDS011;31943;51.410;7.564;2023-04-23T14:03:17;4.43;;;0.60;;
46222;SDS011;31943;51.410;7.564;2023-04-23T14:05:44;1.85;;;0.68;;
46222;SDS011;31943;51.410;7.564;2023-04-23T14:08:10;3.80;;;0.77;;
46222;SDS011;31943;51.410;7.564;2023-04-23T14:10:35;1.30;;;0.52;;
46222;SDS011;31943;51.410;7.564;2023-04-23T14:13:01;1.02;;;0.60;;
46222;SDS011;31943;51.410;7.564;2023-04-23T14:15:27;1.70;;;0.60;;
46222;SDS011;31943;51.410;7.564;2023-04-23T14:17:53;2.72;;;0.70;;
46222;SDS011;31943;51.410;7.564;2023-04-23T14:20:18;2.42;;;0.75;;
46222;SDS011;31943;51.410;7.564;2023-04-23T14:22:48;1.90;;;0.60;;
46222;SDS011;31943;51.410;7.564;2023-04-23T14:25:15;1.58;;;0.50;;
46222;SDS011;31943;51.410;7.564;2023-04-23T14:27:49;1.23;;;0.60;;
46222;SDS011;31943;51.410;7.564;2023-04-23T14:30:16;2.50;;;0.73;;
46222;SDS011;31943;51.410;7.564;2023-04-23T14:32:44;1.23;;;0.50;;
46222;SDS011;31943;51.410;7.564;2023-04-23T14:35:10;0.93;;;0.60;;
46222;SDS011;31943;51.410;7.564;2023-04-23T14:37:37;1.80;;;0.65;;
46222;SDS011;31943;51.410;7.564;2023-04-23T14:40:04;3.92;;;0.82;;